Time;durP1;ratioP1;P1;durP2;ratioP2;P2;SDS_P1;SDS_P2;PMS_P1;PMS_P2;Temp;Humidity;BMP_temperature;BMP_pressure;BME280_temperature;BME280_humidity;BME280_pressure;Samples;Min_cycle;Max_cycle;Signal;HPM_P1;HPM_P2
2021/10/25 00:01:04;;;;;;;;;8.67;8.00;;;;;19.08;45.28;101673.25;5077791;28;45468;-63
2021/10/25 00:03:30;;;;;;;;;10.33;8.33;;;;;19.09;45.52;101677.72;5077253;27;46338;-64
2021/10/25 00:05:56;;;;;;;;;9.00;9.00;;;;;19.09;45.64;101676.81;5077591;27;45320;-66
2021/10/25 00:08:21;;;;;;;;;12.00;12.00;;;;;19.07;45.45;101668.84;5077802;28;45303;-63
2021/10/25 00:10:46;;;;;;;;;13.00;9.67;;;;;19.07;45.45;101668.84;5077723;28;45294;-63
2021/10/25 00:13:12;;;;;;;;;10.33;10.33;;;;;19.08;45.40;101665.25;5077125;28;46808;-64
2021/10/25 00:15:38;;;;;;;;;8.67;8.33;;;;;19.06;45.41;101667.03;5077167;28;45345;-63
2021/10/25 00:18:04;;;;;;;;;12.00;11.33;;;;;19.08;45.51;101667.03;5077355;27;45455;-64
2021/10/25 00:20:30;;;;;;;;;11.33;11.33;;;;;19.08;45.32;101669.69;5077589;28;45480;-63
2021/10/25 00:22:56;;;;;;;;;13.33;12.33;;;;;19.07;45.37;101668.84;5077144;28;46397;-66
2021/10/25 00:25:22;;;;;;;;;12.67;11.67;;;;;19.07;45.50;101666.16;5077246;28;45416;-64
2021/10/25 00:27:47;;;;;;;;;7.67;7.67;;;;;19.07;45.30;101666.16;5077071;28;45386;-67
2021/10/25 00:30:13;;;;;;;;;10.67;10.67;;;;;19.07;45.30;101663.50;5077157;27;45566;-65
2021/10/25 00:32:39;;;;;;;;;8.00;7.67;;;;;19.07;45.41;101663.50;5076692;28;46240;-66
2021/10/25 00:35:06;;;;;;;;;11.00;10.00;;;;;19.07;45.24;101663.50;5077058;28;45377;-66
2021/10/25 00:37:31;;;;;;;;;11.00;11.00;;;;;19.07;45.57;101660.84;5077276;28;45293;-64
2021/10/25 00:39:57;;;;;;;;;9.67;8.33;;;;;19.07;45.30;101657.28;5077313;28;45532;-62
2021/10/25 00:42:22;;;;;;;;;14.33;10.00;;;;;19.08;45.38;101643.03;5077203;27;46026;-66
2021/10/25 00:44:47;;;;;;;;;12.67;12.67;;;;;19.06;45.26;101640.41;5077030;28;45470;-63
2021/10/25 00:47:13;;;;;;;;;13.00;10.33;;;;;19.06;45.27;101650.16;5076794;27;45387;-63
2021/10/25 00:49:38;;;;;;;;;13.00;10.67;;;;;19.06;45.15;101648.38;5077098;28;45384;-63
2021/10/25 00:52:04;;;;;;;;;10.00;10.00;;;;;19.07;45.12;101649.28;5076823;27;46255;-64
2021/10/25 00:54:33;;;;;;;;;11.33;11.33;;;;;19.06;45.43;101647.50;5076763;28;45404;-62
2021/10/25 00:56:59;;;;;;;;;11.00;11.00;;;;;19.06;45.12;101639.50;5076978;28;45368;-63
2021/10/25 00:59:24;;;;;;;;;14.00;12.67;;;;;19.04;45.35;101647.50;5076911;28;45875;-62
2021/10/25 01:01:50;;;;;;;;;14.67;14.67;;;;;19.05;45.09;101643.97;5076925;28;46214;-63
2021/10/25 01:04:19;;;;;;;;;14.00;12.33;;;;;19.06;45.30;101644.84;5080286;28;45354;-66
2021/10/25 01:06:47;;;;;;;;;13.00;12.00;;;;;19.05;45.11;101646.63;5080792;27;45429;-63
2021/10/25 01:09:13;;;;;;;;;11.00;10.00;;;;;19.04;45.33;101652.84;5080637;28;45421;-64
2021/10/25 01:11:40;;;;;;;;;12.00;11.00;;;;;19.04;45.31;101651.94;5080019;28;45973;-66
2021/10/25 01:14:06;;;;;;;;;11.67;11.33;;;;;19.05;45.35;101657.28;5080024;28;45411;-63
2021/10/25 01:16:32;;;;;;;;;12.67;12.33;;;;;19.05;45.13;101662.63;5079919;28;45663;-62
2021/10/25 01:18:58;;;;;;;;;14.00;11.67;;;;;19.04;45.09;101652.84;5080302;28;45416;-65
2021/10/25 01:21:24;;;;;;;;;14.67;13.33;;;;;19.04;45.16;101660.84;5080029;28;46071;-63
2021/10/25 01:23:50;;;;;;;;;14.33;11.33;;;;;19.04;45.17;101659.94;5079987;28;45251;-65
2021/10/25 01:26:16;;;;;;;;;15.00;13.33;;;;;19.04;45.24;101662.59;5080178;28;45457;-66
2021/10/25 01:28:41;;;;;;;;;11.33;11.33;;;;;19.02;45.31;101654.63;5080125;27;45445;-64
2021/10/25 01:31:07;;;;;;;;;13.00;12.33;;;;;19.04;45.45;101659.94;5079795;27;46300;-66
2021/10/25 01:33:34;;;;;;;;;12.00;12.00;;;;;19.05;45.00;101662.63;5079646;28;45832;-63
2021/10/25 01:36:01;;;;;;;;;10.67;10.67;;;;;19.04;45.37;101654.59;5080151;27;45364;-62
2021/10/25 01:38:26;;;;;;;;;9.00;9.00;;;;;19.03;45.18;101656.41;5079995;27;45355;-65
2021/10/25 01:40:52;;;;;;;;;14.67;12.67;;;;;19.02;45.18;101651.97;5079971;28;46023;-63
2021/10/25 01:43:17;;;;;;;;;13.33;12.67;;;;;19.04;45.21;101657.28;5079826;27;45235;-64
2021/10/25 01:45:47;;;;;;;;;12.00;10.33;;;;;19.02;45.21;101657.28;5079778;28;45424;-63
2021/10/25 01:48:13;;;;;;;;;14.33;12.67;;;;;19.03;45.17;101651.09;5080093;28;45437;-64
2021/10/25 01:50:39;;;;;;;;;13.67;10.67;;;;;19.03;44.83;101653.75;5079229;27;46170;-66
2021/10/25 01:53:06;;;;;;;;;10.33;10.00;;;;;19.01;45.23;101650.19;5079752;27;45346;-67
2021/10/25 01:55:32;;;;;;;;;8.67;8.67;;;;;19.03;45.25;101648.41;5079411;28;45340;-67
2021/10/25 01:57:57;;;;;;;;;11.67;10.33;;;;;19.01;45.16;101642.22;5079724;27;45489;-67
2021/10/25 02:00:23;;;;;;;;;13.33;11.33;;;;;19.02;45.15;101643.06;5079555;28;45720;-67
2021/10/25 02:02:48;;;;;;;;;12.00;10.33;;;;;19.02;45.32;101637.75;5079163;27;45392;-63
2021/10/25 02:05:14;;;;;;;;;12.00;10.67;;;;;19.03;45.21;101640.41;5079515;28;45309;-63
2021/10/25 02:07:39;;;;;;;;;13.33;12.00;;;;;19.02;45.00;101637.75;5079486;28;45308;-67
2021/10/25 02:10:06;;;;;;;;;14.00;13.00;;;;;19.02;44.97;101638.63;5079367;27;47200;-65
2021/10/25 02:12:33;;;;;;;;;12.67;11.33;;;;;19.01;44.99;101639.53;5095246;27;45342;-63
2021/10/25 02:14:58;;;;;;;;;12.67;12.67;;;;;19.03;45.15;101637.75;5077865;28;45345;-62
2021/10/25 02:17:24;;;;;;;;;13.00;13.00;;;;;19.01;45.29;101631.56;5079574;28;45290;-65
2021/10/25 02:19:50;;;;;;;;;15.00;13.67;;;;;19.01;44.94;101626.22;5078917;28;45488;-63
2021/10/25 02:22:16;;;;;;;;;12.33;12.33;;;;;19.02;45.11;101632.41;5079104;27;45430;-63
2021/10/25 02:24:43;;;;;;;;;14.67;11.67;;;;;19.02;44.88;101637.75;5079076;28;45327;-62
2021/10/25 02:27:08;;;;;;;;;12.33;12.33;;;;;19.02;45.31;101640.41;5079249;28;45480;-67
2021/10/25 02:29:37;;;;;;;;;14.33;11.00;;;;;19.02;45.22;101635.06;5078813;27;46184;-63
2021/10/25 02:32:04;;;;;;;;;12.00;11.67;;;;;19.02;45.11;101629.75;5078769;27;45388;-63
2021/10/25 02:34:31;;;;;;;;;13.33;12.33;;;;;19.01;45.22;101635.97;5078972;28;45578;-64
2021/10/25 02:36:57;;;;;;;;;3.33;1.00;;;;;19.00;45.19;101629.75;5079003;28;45442;-66
2021/10/25 02:39:24;;;;;;;;;13.67;11.33;;;;;19.00;45.13;101621.75;5078910;28;47013;-62
2021/10/25 02:41:50;;;;;;;;;12.67;12.33;;;;;19.00;45.26;101619.09;5078779;28;45420;-63
2021/10/25 02:44:16;;;;;;;;;11.33;10.00;;;;;19.00;44.95;101613.78;5078804;28;45402;-63
2021/10/25 02:46:41;;;;;;;;;15.00;12.67;;;;;19.00;45.10;101608.44;5078950;27;45448;-63
2021/10/25 02:49:07;;;;;;;;;14.00;13.33;;;;;19.00;45.16;101597.78;5078638;28;46942;-62
2021/10/25 02:51:32;;;;;;;;;11.67;11.67;;;;;19.00;45.10;101600.44;5078670;28;45243;-63
2021/10/25 02:53:58;;;;;;;;;12.67;11.33;;;;;19.01;45.11;101610.22;5078654;28;45416;-63
2021/10/25 02:56:23;;;;;;;;;12.67;11.00;;;;;19.00;45.30;101597.78;5079077;28;45290;-64
2021/10/25 02:58:48;;;;;;;;;12.00;10.67;;;;;19.00;44.90;101603.13;5078327;28;46228;-64
2021/10/25 03:01:14;;;;;;;;;12.33;11.67;;;;;19.00;44.95;101597.78;5078478;28;45219;-67
2021/10/25 03:03:39;;;;;;;;;12.00;11.67;;;;;19.00;45.16;101591.56;5078597;28;45218;-64
2021/10/25 03:06:05;;;;;;;;;12.00;12.00;;;;;19.00;45.06;101597.78;5078763;28;45579;-67
2021/10/25 03:08:30;;;;;;;;;13.67;11.33;;;;;18.99;45.10;101590.69;5078442;28;47120;-67
2021/10/25 03:10:56;;;;;;;;;15.00;14.00;;;;;18.99;45.29;101590.69;5078371;28;45328;-64
2021/10/25 03:13:21;;;;;;;;;10.33;10.33;;;;;18.98;45.23;101594.25;5078559;27;45278;-64
2021/10/25 03:15:47;;;;;;;;;12.33;10.00;;;;;18.98;45.13;101589.81;5078238;27;45486;-65
2021/10/25 03:18:14;;;;;;;;;10.33;10.33;;;;;18.99;44.96;101606.69;5077909;28;46279;-67
2021/10/25 03:20:40;;;;;;;;;11.00;8.00;;;;;18.98;45.13;101610.22;5078275;28;45346;-65
2021/10/25 03:23:05;;;;;;;;;13.00;11.33;;;;;18.99;45.28;101601.34;5078175;27;45303;-65
2021/10/25 03:25:31;;;;;;;;;11.67;9.00;;;;;18.98;44.95;101599.56;5078209;28;45381;-66
2021/10/25 03:27:56;;;;;;;;;12.00;12.00;;;;;19.00;45.04;101607.56;5078114;28;45944;-65
2021/10/25 03:30:22;;;;;;;;;11.67;10.00;;;;;18.98;44.96;101602.25;5078009;28;45306;-66
2021/10/25 03:32:48;;;;;;;;;11.67;11.67;;;;;18.99;45.11;101606.69;5077932;28;45326;-62
2021/10/25 03:35:13;;;;;;;;;13.00;12.67;;;;;18.97;44.80;101600.47;5078321;27;45494;-64
2021/10/25 03:37:39;;;;;;;;;11.67;11.33;;;;;18.97;45.00;101601.34;5077848;27;46971;-63
2021/10/25 03:40:06;;;;;;;;;11.67;11.00;;;;;18.98;44.99;101603.13;5077789;27;45221;-64
2021/10/25 03:42:38;;;;;;;;;12.00;10.33;;;;;18.98;45.18;101602.25;5078118;27;45328;-66
2021/10/25 03:47:35;;;;;;;;;8.00;7.00;;;;;18.96;44.84;101596.91;5077471;28;46097;-67
2021/10/25 03:50:11;;;;;;;;;10.00;10.00;;;;;18.97;44.98;101595.16;5077530;27;45323;-64
2021/10/25 04:25:36;;;;;;;;;9.00;9.00;;;;;18.97;45.16;101592.50;5077304;28;45316;-63
2021/10/25 04:28:10;;;;;;;;;9.67;9.33;;;;;18.95;45.36;101594.28;5077322;27;45472;-66
2021/10/25 04:30:37;;;;;;;;;13.67;12.33;;;;;18.95;45.20;101597.78;5076776;27;45466;-66
2021/10/25 04:33:03;;;;;;;;;12.33;10.00;;;;;18.95;45.05;101605.78;5076801;28;45376;-65
2021/10/25 04:35:29;;;;;;;;;11.00;9.67;;;;;18.95;44.96;101596.94;5077001;27;45185;-67
2021/10/25 04:37:55;;;;;;;;;12.67;11.67;;;;;18.94;44.96;101597.81;5076801;28;45204;-66
2021/10/25 04:40:21;;;;;;;;;10.00;9.33;;;;;18.94;45.06;101593.38;5076770;28;47024;-66
2021/10/25 04:42:46;;;;;;;;;9.00;8.67;;;;;18.95;45.21;101596.94;5076931;28;45341;-67
2021/10/25 04:45:12;;;;;;;;;11.00;8.33;;;;;18.93;45.29;101586.25;5077131;27;45438;-64
2021/10/25 04:47:38;;;;;;;;;11.67;10.00;;;;;18.95;45.14;101591.59;5077166;28;45197;-65
2021/10/25 04:50:05;;;;;;;;;9.33;9.00;;;;;18.95;45.34;101588.94;5092694;27;46380;-65
2021/10/25 04:52:31;;;;;;;;;10.00;10.00;;;;;18.95;45.37;101586.28;5076587;28;45459;-67
2021/10/25 04:54:56;;;;;;;;;10.33;10.33;;;;;18.96;45.40;101585.38;5076906;28;45325;-68
2021/10/25 04:57:22;;;;;;;;;11.00;9.33;;;;;18.96;45.36;101580.94;5077045;28;45291;-66
2021/10/25 04:59:47;;;;;;;;;11.33;11.33;;;;;18.95;45.27;101597.78;5076660;28;46211;-67
2021/10/25 05:02:13;;;;;;;;;14.67;10.00;;;;;18.94;45.22;101585.38;5076675;28;45373;-65
2021/10/25 05:04:39;;;;;;;;;12.00;10.00;;;;;18.96;45.33;101590.69;5076809;28;45353;-65
2021/10/25 05:07:04;;;;;;;;;11.00;9.33;;;;;18.94;45.40;101593.38;5076886;28;45504;-63
2021/10/25 05:09:30;;;;;;;;;10.67;10.33;;;;;18.95;45.45;101586.28;5076523;28;46928;-65
2021/10/25 05:11:57;;;;;;;;;12.33;9.00;;;;;18.95;45.34;101586.28;5076479;27;45405;-63
2021/10/25 05:14:22;;;;;;;;;11.33;8.67;;;;;18.94;45.12;101582.72;5076814;28;45306;-65
2021/10/25 05:16:47;;;;;;;;;8.33;8.33;;;;;18.94;45.22;101588.06;5076567;28;45460;-66
2021/10/25 05:19:13;;;;;;;;;10.33;8.33;;;;;18.94;45.37;101588.06;5076526;28;46261;-66
2021/10/25 05:21:38;;;;;;;;;9.00;9.00;;;;;18.95;45.18;101586.28;5076271;27;45313;-65
2021/10/25 05:24:04;;;;;;;;;9.00;9.00;;;;;18.95;45.27;101588.94;5076527;28;45860;-66
2021/10/25 05:26:30;;;;;;;;;10.67;10.33;;;;;18.95;45.57;101584.47;5076617;27;45360;-66
2021/10/25 05:28:56;;;;;;;;;9.67;8.00;;;;;18.95;45.34;101578.28;5076074;28;46246;-67
2021/10/25 05:31:22;;;;;;;;;10.67;9.33;;;;;18.96;45.30;101577.38;5076288;27;45282;-67
2021/10/25 05:33:47;;;;;;;;;9.00;8.00;;;;;18.96;45.43;101569.38;5076250;27;45370;-68
2021/10/25 05:36:13;;;;;;;;;8.00;8.00;;;;;18.95;45.30;101562.31;5076691;27;45397;-66
2021/10/25 05:38:39;;;;;;;;;13.00;9.67;;;;;18.96;45.57;101561.38;5075861;28;46147;-67
2021/10/25 05:41:05;;;;;;;;;11.00;9.67;;;;;18.95;45.57;101562.31;5076182;28;45338;-66
2021/10/25 05:43:32;;;;;;;;;7.00;7.00;;;;;18.94;45.53;101566.72;5095976;27;45387;-69
2021/10/25 05:45:57;;;;;;;;;11.00;10.33;;;;;18.96;45.14;101558.72;5096688;27;45252;-64
2021/10/25 05:48:23;;;;;;;;;9.00;8.00;;;;;18.95;45.57;101568.50;5097514;27;47101;-62
2021/10/25 05:50:48;;;;;;;;;8.67;8.67;;;;;18.95;45.60;101559.63;5099857;27;45380;-68
2021/10/25 05:53:15;;;;;;;;;14.00;8.00;;;;;18.96;45.53;101559.63;5099821;27;45476;-66
2021/10/25 05:55:43;;;;;;;;;8.00;8.00;;;;;18.95;45.43;101563.16;5100113;27;45425;-65
2021/10/25 05:58:22;;;;;;;;;8.67;8.67;;;;;18.96;45.44;101561.38;5099721;27;46207;-67
2021/10/25 06:01:01;;;;;;;;;6.67;6.67;;;;;18.97;45.77;101560.50;5099618;27;45353;-68
2021/10/25 06:03:29;;;;;;;;;11.67;9.67;;;;;18.96;45.42;101562.28;5099798;27;45464;-68
2021/10/25 06:05:54;;;;;;;;;11.00;10.00;;;;;18.96;45.34;101564.94;5099809;27;45329;-67
2021/10/25 06:08:20;;;;;;;;;9.00;9.00;;;;;18.97;45.43;101552.53;5099376;27;46031;-63
2021/10/25 06:10:47;;;;;;;;;10.00;9.67;;;;;18.97;45.61;101547.19;5099687;27;45299;-65
2021/10/25 06:13:22;;;;;;;;;9.00;8.00;;;;;18.97;45.43;101533.88;5099670;27;45317;-68
2021/10/25 06:15:56;;;;;;;;;8.67;8.67;;;;;18.96;45.65;101543.63;5099772;27;45682;-67
2021/10/25 06:18:22;;;;;;;;;11.67;9.00;;;;;18.97;45.33;101555.19;5099331;27;46197;-66
2021/10/25 06:20:48;;;;;;;;;7.67;7.67;;;;;18.97;45.37;101547.19;5099407;27;45426;-65
2021/10/25 06:23:15;;;;;;;;;11.00;9.33;;;;;18.97;45.53;101558.72;5099383;27;45411;-66
2021/10/25 06:25:41;;;;;;;;;8.00;8.00;;;;;18.99;45.67;101569.38;5100040;27;45282;-66
2021/10/25 06:28:07;;;;;;;;;8.00;7.33;;;;;18.98;45.48;101567.59;5099255;27;46505;-62
2021/10/25 06:30:34;;;;;;;;;8.33;8.33;;;;;18.98;45.63;101564.94;5099363;27;45380;-61
2021/10/25 06:33:02;;;;;;;;;8.00;7.33;;;;;18.99;45.54;101572.06;5099259;27;45155;-64
2021/10/25 06:35:28;;;;;;;;;9.33;9.00;;;;;18.98;45.67;101564.94;5099450;27;45443;-63
2021/10/25 06:38:06;;;;;;;;;11.67;9.33;;;;;18.97;45.72;101576.50;5099350;27;46134;-64
2021/10/25 06:40:31;;;;;;;;;10.00;8.33;;;;;18.97;45.56;101581.81;5099315;27;45314;-70
2021/10/25 06:42:57;;;;;;;;;7.50;7.50;;;;;18.96;45.67;101580.94;5099425;27;45324;-65
2021/10/25 06:45:23;;;;;;;;;7.33;6.67;;;;;18.96;45.50;101585.38;5099820;27;45301;-64
2021/10/25 06:47:50;;;;;;;;;9.00;9.00;;;;;18.95;45.84;101584.47;5098968;27;46263;-66
2021/10/25 06:50:18;;;;;;;;;9.33;9.33;;;;;18.95;45.45;101589.81;5098768;27;45299;-62
2021/10/25 06:52:44;;;;;;;;;8.00;8.00;;;;;18.96;45.52;101588.03;5099195;27;45476;-63
2021/10/25 06:55:10;;;;;;;;;8.33;8.33;;;;;18.95;45.73;101588.94;5099249;27;45373;-68
2021/10/25 06:57:35;;;;;;;;;11.00;9.00;;;;;18.95;45.65;101592.47;5098819;27;46018;-64
2021/10/25 07:00:03;;;;;;;;;8.00;8.00;;;;;18.94;45.61;101593.38;5098548;27;45358;-67
2021/10/25 07:02:28;;;;;;;;;9.00;9.00;;;;;18.95;45.47;101592.47;5099001;27;45229;-67
2021/10/25 07:04:54;;;;;;;;;10.67;8.67;;;;;18.95;45.66;101594.28;5099104;27;45229;-69
2021/10/25 07:07:24;;;;;;;;;11.67;9.33;;;;;18.95;45.61;101602.25;5098574;27;46092;-66
2021/10/25 07:09:49;;;;;;;;;8.00;7.67;;;;;18.95;45.76;101596.94;5097572;27;45535;-65
2021/10/25 07:12:15;;;;;;;;;12.00;10.67;;;;;18.95;45.36;101594.28;5098761;27;45407;-69
2021/10/25 07:14:42;;;;;;;;;8.33;8.00;;;;;18.95;45.49;101600.47;5099009;27;45305;-68
2021/10/25 07:17:24;;;;;;;;;8.33;6.33;;;;;18.95;45.84;101604.94;5098569;27;47374;-65
2021/10/25 08:08:46;;;;;;;;;8.00;7.33;;;;;18.92;45.84;101647.56;5055294;28;45345;-69
2021/10/25 08:11:13;;;;;;;;;8.67;8.67;;;;;18.92;45.96;101647.56;5054487;28;46278;-66
2021/10/25 08:13:41;;;;;;;;;8.00;8.00;;;;;18.92;45.72;101652.88;5054290;28;45434;-69
2021/10/25 08:16:22;;;;;;;;;10.67;8.00;;;;;18.92;45.76;101653.78;5054659;28;45501;-67
2021/10/25 08:21:19;;;;;;;;;9.33;9.33;;;;;18.92;45.72;101642.22;5054723;28;45342;-65
2021/10/25 08:23:45;;;;;;;;;9.00;8.67;;;;;18.91;45.86;101644.00;5038515;28;45457;-69
2021/10/25 08:26:11;;;;;;;;;9.00;9.00;;;;;18.92;45.83;101642.22;5055036;28;45246;-69
2021/10/25 08:28:37;;;;;;;;;12.33;10.33;;;;;18.93;45.50;101644.00;5054791;28;45583;-68
2021/10/25 08:31:05;;;;;;;;;9.67;9.67;;;;;18.93;45.90;101638.69;5054685;28;45338;-69
2021/10/25 08:41:29;;;;;;;;;8.67;8.67;;;;;18.93;46.07;101630.69;5059705;27;45508;-69
2021/10/25 08:43:57;;;;;;;;;8.67;8.33;;;;;18.93;46.11;101628.03;5097256;27;45379;-66
2021/10/25 08:46:25;;;;;;;;;8.33;7.33;;;;;18.93;46.01;101633.34;5097641;27;45297;-70
2021/10/25 08:48:52;;;;;;;;;8.67;7.67;;;;;18.93;45.83;101628.88;5097560;27;45461;-65
2021/10/25 08:51:18;;;;;;;;;12.67;9.67;;;;;18.92;46.00;101627.13;5096940;27;46871;-65
2021/10/25 08:53:44;;;;;;;;;7.33;7.33;;;;;18.93;45.99;101625.38;5096907;27;45297;-68
2021/10/25 08:56:16;;;;;;;;;10.33;8.67;;;;;18.93;45.80;101625.38;5097265;27;45320;-68
2021/10/25 08:58:49;;;;;;;;;7.67;7.67;;;;;18.92;46.07;101620.91;5097237;27;45399;-67
2021/10/25 09:01:29;;;;;;;;;11.33;10.33;;;;;18.93;45.96;101628.03;5096869;27;47062;-67
2021/10/25 09:04:06;;;;;;;;;8.00;6.00;;;;;18.93;46.17;101623.56;5096933;27;45264;-66
2021/10/25 09:06:31;;;;;;;;;10.67;10.33;;;;;18.94;46.02;101635.09;5097079;27;45356;-63
2021/10/25 09:09:01;;;;;;;;;11.00;9.00;;;;;18.94;45.83;101624.44;5096535;27;45336;-69
2021/10/25 09:11:28;;;;;;;;;12.67;9.33;;;;;18.93;45.93;101626.22;5096739;27;46568;-66
2021/10/25 09:13:54;;;;;;;;;11.33;11.00;;;;;18.94;45.77;101611.13;5096927;27;45340;-66
2021/10/25 09:16:19;;;;;;;;;14.67;11.67;;;;;18.94;45.75;101609.38;5096961;27;45258;-63
2021/10/25 09:18:45;;;;;;;;;12.67;10.67;;;;;18.94;45.68;101605.81;5097126;27;45483;-64
2021/10/25 09:21:13;;;;;;;;;12.33;11.33;;;;;18.93;46.00;101610.25;5096869;27;46522;-67
2021/10/25 09:23:42;;;;;;;;;14.67;13.00;;;;;18.93;46.18;101601.38;5098502;27;45383;-65
2021/10/25 09:26:13;;;;;;;;;13.33;10.67;;;;;18.95;46.07;101605.78;5100600;27;45321;-64
2021/10/25 09:28:48;;;;;;;;;12.67;10.67;;;;;18.95;45.83;101612.91;5100607;27;45470;-67
2021/10/25 09:31:23;;;;;;;;;12.33;12.33;;;;;18.95;45.83;101613.78;5100207;27;46203;-66
2021/10/25 09:34:02;;;;;;;;;13.00;12.00;;;;;18.95;46.13;101612.91;5099647;27;45407;-64
2021/10/25 09:36:35;;;;;;;;;16.67;13.67;;;;;18.95;45.92;101615.59;5100251;27;45290;-68
2021/10/25 09:39:15;;;;;;;;;17.00;13.67;;;;;18.96;46.12;101612.00;5100275;27;45271;-65
2021/10/25 09:49:50;;;;;;;;;12.00;12.00;;;;;18.96;46.13;101610.25;5100310;27;45388;-65
2021/10/25 09:52:15;;;;;;;;;12.00;8.67;;;;;18.96;46.23;101602.25;5099792;27;47502;-66
2021/10/25 09:54:42;;;;;;;;;15.67;13.00;;;;;18.97;46.04;101605.81;5100048;27;45424;-64
2021/10/25 09:57:10;;;;;;;;;17.00;14.00;;;;;18.97;46.05;101613.81;5099832;27;45312;-62
2021/10/25 09:59:59;;;;;;;;;14.00;11.67;;;;;18.97;46.17;101617.31;5100212;27;45472;-69
2021/10/25 10:02:25;;;;;;;;;14.33;12.00;;;;;18.97;46.23;101606.66;5099809;27;46107;-68
2021/10/25 10:04:57;;;;;;;;;14.67;12.67;;;;;18.98;46.12;101605.78;5099982;27;45477;-67
2021/10/25 10:07:22;;;;;;;;;15.33;12.33;;;;;18.97;46.23;101608.47;5100054;27;45320;-67
2021/10/25 10:09:49;;;;;;;;;12.00;12.00;;;;;18.98;46.15;101615.56;5099878;27;45415;-69
2021/10/25 10:12:19;;;;;;;;;11.33;11.33;;;;;18.98;45.98;101603.13;5099497;27;46347;-63
2021/10/25 10:14:54;;;;;;;;;12.33;12.33;;;;;18.98;46.17;101608.47;5099576;27;45221;-66
2021/10/25 10:17:23;;;;;;;;;12.67;12.67;;;;;18.99;46.18;101612.03;5099649;27;45217;-68
2021/10/25 10:19:51;;;;;;;;;13.00;12.00;;;;;18.98;46.05;101621.78;5099678;27;45338;-65
2021/10/25 10:22:21;;;;;;;;;11.33;11.33;;;;;18.98;46.03;101620.88;5099192;27;47144;-68
2021/10/25 10:24:51;;;;;;;;;13.67;12.67;;;;;18.99;46.14;101622.69;5099435;27;45336;-68
2021/10/25 10:27:23;;;;;;;;;13.00;13.00;;;;;18.98;46.07;101620.88;5099462;27;45297;-63
2021/10/25 10:29:54;;;;;;;;;9.00;9.00;;;;;18.98;46.33;101623.56;5099822;27;45413;-66
2021/10/25 10:32:21;;;;;;;;;11.00;11.00;;;;;18.99;46.15;101628.00;5099076;27;47083;-65
2021/10/25 10:34:49;;;;;;;;;12.00;12.00;;;;;18.98;46.02;101634.22;5098317;27;45325;-63
2021/10/25 10:37:18;;;;;;;;;12.67;12.67;;;;;18.98;46.03;101632.44;5099167;27;45447;-64
2021/10/25 10:39:56;;;;;;;;;12.33;9.67;;;;;18.97;46.42;101632.44;5099629;27;45525;-64
2021/10/25 10:42:27;;;;;;;;;13.67;12.00;;;;;18.97;46.19;101640.44;5098688;27;45431;-62
2021/10/25 10:44:59;;;;;;;;;11.67;10.33;;;;;18.96;46.21;101647.53;5098147;27;45417;-69
2021/10/25 10:47:26;;;;;;;;;13.67;10.67;;;;;18.97;46.47;101640.44;5099243;27;45429;-62
2021/10/25 10:49:56;;;;;;;;;11.00;11.00;;;;;18.96;46.27;101643.97;5115406;27;45760;-64
2021/10/25 10:55:04;;;;;;;;;15.00;11.67;;;;;18.98;46.43;101648.44;5099132;27;45443;-64
2021/10/25 11:00:25;;;;;;;;;11.00;10.67;;;;;18.97;46.38;101645.78;5099115;27;45443;-67
2021/10/25 11:03:23;;;;;;;;;16.33;12.00;;;;;18.97;46.26;101649.31;5098591;27;47167;-62
2021/10/25 11:05:55;;;;;;;;;15.67;14.00;;;;;18.97;46.20;101651.09;5076169;28;45522;-63
2021/10/25 11:08:24;;;;;;;;;11.33;11.33;;;;;18.96;46.22;101657.31;5076244;28;45920;-65
2021/10/25 11:11:00;;;;;;;;;12.00;12.00;;;;;18.97;46.54;101659.97;5076573;28;45288;-64
2021/10/25 11:13:29;;;;;;;;;10.00;10.00;;;;;18.96;46.30;101655.53;5076045;28;45509;-63
2021/10/25 11:18:51;;;;;;;;;12.00;11.00;;;;;18.96;46.05;101649.31;5075987;28;45400;-63
2021/10/25 11:21:24;;;;;;;;;14.00;12.00;;;;;18.96;46.31;101638.66;5076237;28;45449;-63
2021/10/25 11:23:55;;;;;;;;;11.33;11.33;;;;;18.97;46.62;101632.44;5076015;28;45382;-63
2021/10/25 11:26:36;;;;;;;;;13.33;10.33;;;;;18.96;46.58;101633.31;5075943;28;45280;-65
2021/10/25 11:29:13;;;;;;;;;12.00;10.33;;;;;18.96;46.56;101626.22;5076217;28;45424;-63
2021/10/25 11:31:41;;;;;;;;;8.67;8.67;;;;;18.97;46.42;101621.78;5076092;28;45476;-63
2021/10/25 11:34:15;;;;;;;;;13.33;10.33;;;;;18.96;46.74;101623.56;5075479;28;46438;-63
2021/10/25 11:37:07;;;;;;;;;14.67;10.33;;;;;18.97;46.57;101628.00;5075570;28;45399;-63
2021/10/25 11:39:45;;;;;;;;;13.00;12.67;;;;;18.98;46.62;101620.88;5075641;28;45368;-63
2021/10/25 11:42:16;;;;;;;;;13.00;11.00;;;;;18.98;46.82;101623.56;5087438;27;45465;-63
2021/10/25 11:44:54;;;;;;;;;10.00;9.67;;;;;18.98;46.34;101621.78;5098241;27;46645;-63
2021/10/25 11:47:26;;;;;;;;;8.67;8.67;;;;;18.99;46.55;101622.69;5097903;27;45435;-62
2021/10/25 11:50:03;;;;;;;;;13.00;10.33;;;;;18.98;46.62;101623.56;5098340;27;45355;-62
2021/10/25 11:52:48;;;;;;;;;7.67;7.67;;;;;18.98;46.69;101624.44;5098139;27;45496;-63
2021/10/25 11:55:25;;;;;;;;;12.00;9.67;;;;;18.98;46.51;101615.56;5097509;27;45458;-64
2021/10/25 11:57:54;;;;;;;;;11.67;11.67;;;;;18.98;46.66;101626.22;5098030;27;45396;-62
2021/10/25 12:00:24;;;;;;;;;9.67;9.67;;;;;18.98;46.75;101621.78;5098216;27;45333;-64
2021/10/25 12:02:49;;;;;;;;;14.67;12.67;;;;;18.98;46.62;101626.22;5097821;27;45258;-62
2021/10/25 12:05:24;;;;;;;;;12.33;7.33;;;;;18.98;46.51;101621.78;5097640;27;46580;-62
2021/10/25 12:07:52;;;;;;;;;11.33;10.00;;;;;19.00;46.53;101620.88;5097584;27;45372;-68
2021/10/25 12:10:21;;;;;;;;;8.33;8.33;;;;;18.99;46.61;101617.34;5097949;27;45389;-67
2021/10/25 12:12:53;;;;;;;;;11.67;11.33;;;;;19.00;46.64;101621.75;5098010;27;45570;-66
2021/10/25 12:15:20;;;;;;;;;8.67;8.67;;;;;19.01;46.67;101617.34;5097516;27;45530;-63
2021/10/25 12:17:49;;;;;;;;;9.33;8.00;;;;;19.00;46.66;101616.44;5097350;27;45233;-65
2021/10/25 12:20:25;;;;;;;;;11.00;9.00;;;;;19.00;46.80;101607.56;5096525;27;45427;-68
2021/10/25 12:23:09;;;;;;;;;11.00;11.00;;;;;19.00;46.63;101608.44;5097534;27;45542;-65
2021/10/25 12:25:36;;;;;;;;;8.00;7.67;;;;;19.00;46.80;101608.44;5097513;27;46373;-69
2021/10/25 12:28:28;;;;;;;;;10.33;10.33;;;;;19.00;46.89;101605.78;5095767;27;45369;-64
2021/10/25 12:31:09;;;;;;;;;10.00;9.67;;;;;19.00;46.96;101597.78;5096296;27;45561;-62
2021/10/25 12:33:37;;;;;;;;;8.67;8.67;;;;;19.01;46.92;101588.03;5097619;27;45350;-66
2021/10/25 12:36:23;;;;;;;;;8.67;7.67;;;;;19.01;46.52;101593.34;5097218;27;46385;-63
2021/10/25 12:38:54;;;;;;;;;9.67;9.67;;;;;19.00;46.64;101581.81;5097170;27;45470;-62
2021/10/25 12:41:20;;;;;;;;;9.00;7.67;;;;;19.00;46.89;101576.47;5097474;27;45187;-63
2021/10/25 12:43:54;;;;;;;;;11.00;9.00;;;;;19.02;46.75;101579.13;5097530;27;45491;-70
2021/10/25 12:46:22;;;;;;;;;10.33;8.67;;;;;19.00;46.92;101573.81;5097364;27;47349;-64
2021/10/25 12:48:52;;;;;;;;;5.33;5.33;;;;;19.02;46.71;101585.34;5097210;27;45279;-63
2021/10/25 12:51:19;;;;;;;;;8.33;7.67;;;;;19.01;46.68;101578.25;5097133;27;45369;-63
2021/10/25 12:53:47;;;;;;;;;12.00;9.00;;;;;19.00;46.93;101576.47;5097433;27;45313;-65
2021/10/25 12:56:22;;;;;;;;;8.67;7.33;;;;;19.01;46.52;101578.25;5096780;27;46654;-68
2021/10/25 12:59:01;;;;;;;;;8.67;8.00;;;;;19.02;46.71;101576.47;5096491;27;45530;-66
2021/10/25 13:01:26;;;;;;;;;7.33;6.67;;;;;19.03;46.90;101584.47;5096102;27;45351;-62
2021/10/25 13:03:56;;;;;;;;;10.00;9.33;;;;;19.01;46.95;101575.59;5097125;27;45372;-65
2021/10/25 13:06:26;;;;;;;;;10.00;7.67;;;;;19.01;46.83;101572.94;5097025;27;46164;-67
2021/10/25 13:09:01;;;;;;;;;9.00;7.00;;;;;19.03;46.59;101581.81;5097056;27;45501;-62
2021/10/25 13:11:27;;;;;;;;;9.00;9.00;;;;;19.01;46.88;101572.94;5097157;27;45328;-67